»·PEaware :: N3038V KBUR-KIFP

N3038V :: KBUR-KIFP

FLIGHT INFORMATION

Flight Status: Arrived
Operator: Privately registered:
United States
More flights under this callsign
Pilot: Gregory A. (9731)
Aircraft: Unknown
(BD5J)
More flights by this aircraft type
Origin: KBUR Bob Hope-Burbank
United States
Destination: KIFP Laughlin/Bullhead Intl
United States
More flights between these airports :: More routes between these airports
Route: +VNY2 PMD HEC GFS
File this flight plan on PilotEdge
Remarks: Aircraft officially is HXC but not selectable in type list (would not accept typing it in). Note BD-5J is in the list.
Altitude:
(Current/Filed)
26,000ft
Speed:
(Current/Filed)
320kts
Departed: 29-Dec-15 10:08 AM
Arrived: 29-Dec-15 11:01 AM
Distance/Time
Traveled:
196nm/0:52
Distance/Time
To Go:
Arrived

Flight Plot

Page will automatically refresh every two minutes.

Flight plan parsing failed; only flown route is shown


Map Options




Map Legend


Flown Route
Filed Route
Departure Airport
Arrival Airport
Navaid (VOR, NDB)
Fix

Horizontal Profiles

Position Reports

Time Latitude Longitude Heading Altitude Ground
Speed
29-Dec-15 09:34 34.195892 -118.366183 180 780ft 0kts
29-Dec-15 09:35 34.195890 -118.366183 180 780ft 0kts
29-Dec-15 09:36 34.195889 -118.366183 180 780ft 0kts
29-Dec-15 09:37 34.195887 -118.366183 180 780ft 0kts
29-Dec-15 09:38 34.195885 -118.366183 180 780ft 0kts
29-Dec-15 09:39 34.195884 -118.366183 180 780ft 0kts
29-Dec-15 09:40 34.195882 -118.366183 180 780ft 0kts
29-Dec-15 09:41 34.195881 -118.366183 179 780ft 0kts
29-Dec-15 09:42 34.195879 -118.366183 180 780ft 0kts
29-Dec-15 09:43 34.195877 -118.366183 180 780ft 0kts
29-Dec-15 09:44 34.195876 -118.366183 179 780ft 0kts
29-Dec-15 09:45 34.195874 -118.366183 179 780ft 0kts
29-Dec-15 09:46 34.195872 -118.366183 179 780ft 0kts
29-Dec-15 09:47 34.195871 -118.366183 180 780ft 0kts
29-Dec-15 09:48 34.195869 -118.366183 179 780ft 0kts
29-Dec-15 09:49 34.195867 -118.366183 179 780ft 0kts
29-Dec-15 09:50 34.195866 -118.366183 180 780ft 0kts
29-Dec-15 09:51 34.195864 -118.366183 180 780ft 0kts
29-Dec-15 09:52 34.195862 -118.366183 179 780ft 0kts
29-Dec-15 09:53 34.195861 -118.366183 179 780ft 0kts
29-Dec-15 09:54 34.195859 -118.366183 179 780ft 0kts
29-Dec-15 09:55 34.195857 -118.366183 179 780ft 0kts
29-Dec-15 09:56 34.196349 -118.366199 1 780ft 1kts
29-Dec-15 09:57 34.196758 -118.367495 270 780ft 4kts
29-Dec-15 09:58 34.197314 -118.368956 359 780ft 0kts
29-Dec-15 09:59 34.197315 -118.368956 359 780ft 0kts
29-Dec-15 10:00 34.197317 -118.368956 359 780ft 0kts
29-Dec-15 10:01 34.197319 -118.368956 359 780ft 0kts
29-Dec-15 10:02 34.197320 -118.368956 359 780ft 0kts
29-Dec-15 10:03 34.197902 -118.368503 85 780ft 13kts
29-Dec-15 10:04 34.189500 -118.337689 156 1779ft 161kts
29-Dec-15 10:05 34.148100 -118.364834 218 4034ft 212kts
29-Dec-15 10:06 34.096176 -118.427323 225 4168ft 281kts
29-Dec-15 10:07 34.096330 -118.499108 336 5785ft 217kts
29-Dec-15 10:08 34.156121 -118.519112 352 7432ft 231kts
29-Dec-15 10:09 34.219575 -118.533799 352 9037ft 231kts
29-Dec-15 10:10 34.282380 -118.535611 14 10658ft 225kts
29-Dec-15 10:11 34.339239 -118.503710 24 12291ft 225kts
29-Dec-15 10:12 34.393568 -118.466360 26 13837ft 227kts
29-Dec-15 10:13 34.404846 -118.384765 102 14021ft 299kts
29-Dec-15 10:14 34.430233 -118.295689 48 14011ft 274kts
29-Dec-15 10:15 34.478763 -118.225133 43 14808ft 283kts
29-Dec-15 10:16 34.547760 -118.180749 16 16523ft 285kts
29-Dec-15 10:17 34.597941 -118.109097 59 18175ft 296kts
29-Dec-15 10:18 34.627964 -118.012183 81 19799ft 326kts
29-Dec-15 10:19 34.632992 -117.905083 78 21460ft 309kts
29-Dec-15 10:20 34.639892 -117.813720 75 22880ft 302kts
29-Dec-15 10:21 34.650448 -117.712877 73 24482ft 298kts
29-Dec-15 10:22 34.661901 -117.611402 73 25316ft 316kts
29-Dec-15 10:23 34.674463 -117.501764 73 25335ft 333kts
29-Dec-15 10:24 34.685891 -117.399553 73 25307ft 338kts
29-Dec-15 10:25 34.698020 -117.292028 73 25308ft 339kts
29-Dec-15 10:26 34.711137 -117.177271 73 24862ft 350kts
29-Dec-15 10:27 34.726980 -117.060573 81 24360ft 356kts
29-Dec-15 10:28 34.736048 -116.943335 69 24366ft 339kts
29-Dec-15 10:29 34.757337 -116.831860 72 24370ft 340kts
29-Dec-15 10:30 34.766409 -116.715975 75 24375ft 343kts
29-Dec-15 10:31 34.779338 -116.621679 71 24380ft 339kts
29-Dec-15 10:32 34.807096 -116.514919 56 24381ft 326kts
29-Dec-15 10:33 34.842086 -116.412059 60 24380ft 330kts
29-Dec-15 10:34 34.872846 -116.302873 63 23422ft 349kts
29-Dec-15 10:35 34.901706 -116.191918 65 22083ft 331kts
29-Dec-15 10:36 34.926915 -116.086753 66 20478ft 317kts
29-Dec-15 10:37 34.948627 -115.990411 68 18880ft 275kts
29-Dec-15 10:38 34.968148 -115.901835 67 17274ft 268kts
29-Dec-15 10:39 34.990500 -115.815223 61 15696ft 265kts
29-Dec-15 10:40 35.018864 -115.725294 71 14103ft 312kts
29-Dec-15 10:41 35.034360 -115.616973 81 12929ft 333kts
29-Dec-15 10:42 35.055409 -115.512839 68 12182ft 235kts
29-Dec-15 10:43 35.073642 -115.433297 69 11424ft 268kts
29-Dec-15 10:44 35.093148 -115.342993 68 11296ft 277kts
29-Dec-15 10:45 35.111496 -115.254806 68 11294ft 252kts
29-Dec-15 10:46 35.121719 -115.170167 77 11295ft 249kts
29-Dec-15 10:47 35.126923 -115.086007 77 11295ft 247kts
29-Dec-15 10:48 35.132358 -115.001495 76 11295ft 250kts
29-Dec-15 10:49 35.138004 -114.915293 77 11004ft 252kts
29-Dec-15 10:50 35.143745 -114.826869 78 9582ft 252kts
29-Dec-15 10:51 35.148249 -114.746040 77 7768ft 231kts
29-Dec-15 10:52 35.153105 -114.671077 71 7001ft 202kts
29-Dec-15 10:53 35.171954 -114.608969 103 5720ft 250kts
29-Dec-15 10:54 35.126032 -114.588609 172 3392ft 111kts
29-Dec-15 10:55 35.115172 -114.570073 67 3178ft 130kts
29-Dec-15 10:56 35.149876 -114.558992 353 697ft 103kts
29-Dec-15 10:57 35.165832 -114.560248 355 697ft 25kts
29-Dec-15 10:58 35.167542 -114.559534 92 697ft 0kts
29-Dec-15 10:59 35.167542 -114.559531 92 697ft 0kts
29-Dec-15 11:00 35.164613 -114.558921 177 697ft 34kts
29-Dec-15 11:01 35.157897 -114.557902 97 697ft 12kts
29-Dec-15 11:02 35.158608 -114.555935 4 697ft 0kts

Navigation Log

Ident Type
Flight plan parsing failed, navigation log unavailable